Mc Henry, Mississippi
Current Conditions -  °F | °C
As of 12:53 PM on Monday 20 Oct 2014 (Local Time) from KGPT Reporting Station
Clear Clear  
Wind Chill: 76°   Ceiling: Unl
Heat Index: 76°   Visibility: 10mi
Dew Point: 49°   Wind: 3mph
Humidity: 38%   Direction: NA
Pressure: 30.03"   Gusts: NA
Location:  30.7166°N, 89.1863°W
Report Text: KGPT 201753Z VRB03KT 10SM CLR 24/09 A3003 RMK AO2 SLP169 T02440094 10250 20117 58012
Loading
Personal Weather Stations






























Interactive Weather Map
Tropical Storm Tracking
New forecast layout! Learn more

10-Day Weather Forecast

Advertisements
Track Severe Weather on mobile